Pleasantville, New York
Current Conditions -  °F | °C
As of 3:56 AM on Saturday 20 Dec 2014 (Local Time) from KHPN Reporting Station
Broken Clouds Broken Clouds  
Wind Chill: -6°   Ceiling: 3000
Heat Index: -2°   Visibility: 10mi
Dew Point: -7°   Wind: 6mph
Humidity: 69%   Direction: 350°N
Pressure: 30.19"   Gusts: NA
Location:  41.13°N, 73.79°W
Report Text: KHPN 200856Z 35005KT 10SM BKN030 M02/M07 A3019 RMK AO2 SLP231 T10221072 53009
Loading
Personal Weather Stations






























Interactive Weather Map New forecast layout! Learn more

10-Day Weather Forecast

Advertisements
Track Severe Weather on mobile